Calpine, California
Current Conditions -  °F | °C
As of 10:15 PM on Saturday 25 Oct 2014 (Local Time) from KTRK Reporting Station
Broken Clouds Broken Clouds  
Wind Chill: 35°   Ceiling: 3000
Heat Index: 41°   Visibility: 10mi
Dew Point: 32°   Wind: 9mph
Humidity: 70%   Direction: 170°S
Pressure: 30.13"   Gusts: 16mph
Location:  39.67°N, 120.44°W
Report Text: KTRK 260515Z AUTO 17008G14KT 10SM BKN030 05/00 A3013 RMK AO2
Loading
Personal Weather Stations






























Interactive Weather Map
Tropical Storm Tracking
New forecast layout! Learn more

10-Day Weather Forecast

Advertisements
Track Severe Weather on mobile